Terminal Aerodrome Forecast
Issued by NWS Sioux Falls, SD

Home | Current Version | Previous Version | Text Only | Print | Product List | Glossary Off
Versions: 1 2 3 4 5 6 7 8 9 10 11 12 13 14 15 16 17 18 19 20

000
FTUS43 KFSD 180457 AAB
TAFFSD
TAF AMD
KFSD 180457Z 1805/1824 VRB04KT P6SM OVC250
     FM180510 32019G28KT P6SM SCT100 OVC250
     FM180525 04007KT P6SM VCTS OVC090CB
     FM180600 09008KT P6SM -SHRA OVC090
      TEMPO 1806/1808 6SM -TSRA OVC070CB
     FM180900 13004KT P6SM BKN090
     FM181200 14004KT P6SM SCT120
     FM181600 21004KT P6SM SCT130=

USA.gov is the U.S. government's official web portal to all federal, state and local government web resources and services.